Impacts TAF Board INFO
FOR SITUATIONAL AWARENESS. NOT TO BE USED FOR FLIGHT PLANNING PURPOSES.
IDs:

KDEN - Denver Intl, CO, US

Issued at 0204 UTC 16 Aug 2018
Updated at 0307 UTC 16 Aug 2018
Potential Impact None Slight Moderate High
Time<<16/16Z 16/17Z 16/18Z 16/19Z 16/20Z 16/21Z 16/22Z 16/23Z 17/00Z 17/01Z 17/02Z 17/03Z 17/04Z>>
Type PRVL PRVL PRVL PRVL PRVL PRVL PRVL PRVL PRVL PRVL PRVL PRVL PRVL
VIS >6 >6 >6 >6 >6 >6 >6 >6 >6 >6 >6 >6 >6
CIG -- -- -- -- -- -- -- -- -- -- -- -- --
Cover FEW FEW FEW FEW SCT SCT SCT SCT SCT SCT SCT SCT SCT
FltCat VFR VFR VFR VFR VFR VFR VFR VFR VFR VFR VFR VFR VFR
WX -- -- -- -- -- -- -- -- -- -- -- -- --
WDir 350 350 350 350 90 90 90 90 90 150 150 150 150
WSpd 8 8 8 8 7 7 7 7 7 13 13 13 13
WGst -- -- -- -- -- -- -- -- -- -- -- -- --

Raw TAF
KDEN 160204Z 1602/1706 16013KT P6SM FEW150 BKN250
  TEMPO 1602/1603 17015G24KT
  FM160400 20012KT P6SM FEW140 BKN250
  FM160500 08008KT P6SM BKN250
  FM160800 19010KT P6SM SCT250
  FM161600 35008KT P6SM FEW200
  FM162000 09007KT P6SM SCT220
  FM170100 15013KT P6SM SCT090 SCT150


METAR Board
Radar Display
Forecast Discussion

FOR SITUATIONAL AWARENESS. NOT TO BE USED FOR FLIGHT PLANNING PURPOSES.